createdAt,value
2023-01-19T00:04:44.716Z,2.6
2023-01-19T00:09:44.583Z,2.5
2023-01-19T00:14:44.711Z,2.5
2023-01-19T00:19:44.646Z,2.5
2023-01-19T00:24:45.039Z,2.8
2023-01-19T00:29:44.994Z,2.8
2023-01-19T00:34:44.968Z,2.8
2023-01-19T00:39:44.577Z,2.8
2023-01-19T00:44:44.850Z,2.9
2023-01-19T00:49:45.124Z,2.9
2023-01-19T00:54:45.356Z,2.9
2023-01-19T00:59:44.502Z,2.9
2023-01-19T01:04:44.901Z,2.7
2023-01-19T01:09:44.543Z,2.7
2023-01-19T01:14:44.659Z,2.9
2023-01-19T01:19:44.903Z,3.1
2023-01-19T01:24:45.031Z,3.2
2023-01-19T01:29:44.440Z,3.3
2023-01-19T01:34:44.868Z,3.1
2023-01-19T01:39:44.572Z,3
2023-01-19T01:44:44.416Z,3.1
2023-01-19T01:49:44.794Z,3.4
2023-01-19T01:54:44.990Z,3.4
2023-01-19T01:59:47.567Z,3.5
2023-01-19T02:04:44.574Z,3.6
2023-01-19T02:09:44.675Z,3.1
2023-01-19T02:15:22.562Z,3.1
2023-01-19T02:19:44.689Z,3.1
2023-01-19T02:24:44.480Z,3.2
2023-01-19T02:29:44.607Z,3.2
2023-01-19T02:34:44.667Z,3
2023-01-19T02:39:46.608Z,3.1
2023-01-19T02:44:44.402Z,3
2023-01-19T02:49:44.604Z,2.8
2023-01-19T02:54:45.064Z,2.8
2023-01-19T02:59:44.371Z,2.7
2023-01-19T03:04:44.402Z,2.4
2023-01-19T03:09:50.414Z,2
2023-01-19T03:14:44.271Z,1.6
2023-01-19T03:19:47.161Z,1.7
2023-01-19T03:24:46.857Z,1.7
2023-01-19T03:29:44.608Z,1.8
2023-01-19T03:34:45.804Z,1.7
2023-01-19T03:39:44.532Z,2
2023-01-19T03:44:45.175Z,1.6
2023-01-19T03:49:46.302Z,1.4
2023-01-19T03:54:44.435Z,1.2
2023-01-19T03:59:44.806Z,1.3
2023-01-19T04:04:44.276Z,1.2
2023-01-19T04:09:44.429Z,1.3
2023-01-19T04:14:44.476Z,1.4
2023-01-19T04:19:44.380Z,1.5
2023-01-19T04:24:44.410Z,1.8
2023-01-19T04:29:44.771Z,1.8
2023-01-19T04:34:44.597Z,1.8
2023-01-19T04:39:44.286Z,1.9
2023-01-19T04:44:44.751Z,1.8
2023-01-19T04:49:44.504Z,1.9
2023-01-19T04:54:44.615Z,1.8
2023-01-19T04:59:44.326Z,2
2023-01-19T05:04:44.459Z,2.4
2023-01-19T05:09:44.479Z,2.5
2023-01-19T05:14:44.368Z,2.4
2023-01-19T05:19:44.727Z,2.4
2023-01-19T05:24:44.290Z,2.5
2023-01-19T05:29:44.665Z,2.7
2023-01-19T05:34:44.165Z,2.3
2023-01-19T05:39:44.379Z,2.4
2023-01-19T05:44:44.342Z,2
2023-01-19T05:49:44.569Z,1.9
2023-01-19T05:54:44.877Z,1.9
2023-01-19T05:59:44.177Z,1.9
2023-01-19T06:04:44.764Z,2.4
2023-01-19T06:09:44.407Z,2.9
2023-01-19T06:14:44.359Z,2.6
2023-01-19T06:19:44.428Z,2.7
2023-01-19T06:24:44.488Z,2.5
2023-01-19T06:29:44.639Z,2.5
2023-01-19T06:34:44.591Z,2.2
2023-01-19T06:39:44.344Z,2.2
2023-01-19T06:44:44.772Z,2.2
2023-01-19T06:49:44.420Z,2.1
2023-01-19T06:54:45.592Z,2.2
2023-01-19T06:59:44.539Z,2.1
2023-01-19T07:04:44.446Z,2
2023-01-19T07:09:44.265Z,1.9
2023-01-19T07:14:44.293Z,1.9
2023-01-19T07:19:44.589Z,1.8
2023-01-19T07:24:44.705Z,1.6
2023-01-19T07:29:44.647Z,1.5
2023-01-19T07:34:44.156Z,1.4
2023-01-19T07:39:44.206Z,1.4
2023-01-19T07:44:44.470Z,1.5
2023-01-19T07:49:44.369Z,1.4
2023-01-19T07:54:44.289Z,1.5
2023-01-19T07:59:44.659Z,1.7
2023-01-19T08:04:44.448Z,1.8
2023-01-19T08:09:44.269Z,1.6
2023-01-19T08:14:44.214Z,1.9
2023-01-19T08:19:44.178Z,2
2023-01-19T08:24:44.521Z,2.3
2023-01-19T08:29:44.316Z,2.7
2023-01-19T08:34:44.371Z,2.8
2023-01-19T08:39:44.336Z,3
2023-01-19T08:44:57.249Z,3.1
2023-01-19T08:49:44.297Z,3.3
2023-01-19T08:54:44.413Z,3
2023-01-19T08:59:44.130Z,2.9
2023-01-19T09:04:44.435Z,3.5
2023-01-19T09:09:44.095Z,3.7
2023-01-19T09:14:43.995Z,3.8
2023-01-19T09:19:44.372Z,3.9
2023-01-19T09:24:44.074Z,3.9
2023-01-19T09:29:44.445Z,3.9
2023-01-19T09:34:44.105Z,4.3
2023-01-19T09:39:44.160Z,3.8
2023-01-19T09:44:44.001Z,3.8
2023-01-19T09:49:44.060Z,3.9
2023-01-19T09:54:46.479Z,4
2023-01-19T09:59:44.326Z,4.1
2023-01-19T10:04:44.164Z,3.9
2023-01-19T10:09:44.060Z,4.1
2023-01-19T10:14:47.119Z,4.4
2023-01-19T10:19:46.560Z,4.3
2023-01-19T10:24:44.143Z,4.5
2023-01-19T10:29:45.574Z,4.7
2023-01-19T10:34:44.461Z,5
2023-01-19T10:39:45.139Z,4.9
2023-01-19T10:44:44.771Z,5
2023-01-19T10:49:45.187Z,4.8
2023-01-19T10:54:44.139Z,5.2
2023-01-19T10:59:46.603Z,4.9
2023-01-19T11:04:45.137Z,5.3
2023-01-19T11:09:44.408Z,5.3
2023-01-19T11:14:43.984Z,5.3
2023-01-19T11:19:51.428Z,5.1
2023-01-19T11:24:44.058Z,5.4
2023-01-19T11:29:47.029Z,5.3
2023-01-19T11:34:44.375Z,4.8
2023-01-19T11:39:44.124Z,5.2
2023-01-19T11:44:51.234Z,5.6
2023-01-19T11:49:46.374Z,6
2023-01-19T11:54:44.163Z,6.2
2023-01-19T11:59:44.365Z,6.3
2023-01-19T12:04:45.901Z,6.2
2023-01-19T12:09:47.641Z,6.6
2023-01-19T12:14:50.245Z,5.9
2023-01-19T12:19:43.963Z,6.6
2023-01-19T12:24:44.129Z,7.2
2023-01-19T12:29:44.279Z,7.1
2023-01-19T12:34:44.847Z,8.1
2023-01-19T12:39:47.048Z,7.4
2023-01-19T12:44:43.873Z,6.8
2023-01-19T12:49:46.672Z,5.7
2023-01-19T12:54:43.938Z,5.6
2023-01-19T12:59:44.227Z,5.4
2023-01-19T13:05:03.523Z,5.3
2023-01-19T13:09:44.364Z,5.4
2023-01-19T13:14:43.889Z,5.5
2023-01-19T13:19:47.044Z,5.4
2023-01-19T13:24:44.063Z,5.3
2023-01-19T13:29:43.804Z,5.2
2023-01-19T13:34:44.051Z,5.3
2023-01-19T13:39:45.459Z,5.1
2023-01-19T13:44:46.233Z,5
2023-01-19T13:49:45.413Z,5.1
2023-01-19T13:54:47.926Z,5.1
2023-01-19T13:59:44.112Z,5.1
2023-01-19T14:04:43.931Z,5.1
2023-01-19T14:09:44.171Z,4.9
2023-01-19T14:14:44.677Z,4.9
2023-01-19T14:19:44.026Z,5
2023-01-19T14:24:44.117Z,4.8
2023-01-19T14:29:44.083Z,5.1
2023-01-19T14:34:43.768Z,5
2023-01-19T14:39:45.128Z,5.2
2023-01-19T14:44:45.838Z,5.1
2023-01-19T14:49:44.039Z,4.9
2023-01-19T14:54:45.022Z,4.9
2023-01-19T14:59:43.808Z,5.1
2023-01-19T15:04:44.261Z,4.8
2023-01-19T15:09:43.957Z,4.1
2023-01-19T15:14:44.616Z,4.3
2023-01-19T15:19:44.040Z,4.1
2023-01-19T15:24:44.058Z,4.3
2023-01-19T15:29:43.913Z,4.2
2023-01-19T15:34:43.990Z,3.9
2023-01-19T15:39:44.055Z,4
2023-01-19T15:44:43.845Z,3.5
2023-01-19T15:49:44.133Z,3.5
2023-01-19T15:54:44.240Z,3
2023-01-19T15:59:44.098Z,2.9
2023-01-19T16:04:47.014Z,2.9
2023-01-19T16:09:44.005Z,2.8
2023-01-19T16:14:44.160Z,2.6
2023-01-19T16:19:43.892Z,2.3
2023-01-19T16:24:43.842Z,2.3
2023-01-19T16:29:44.172Z,2.2
2023-01-19T16:34:43.804Z,2.2
2023-01-19T16:39:43.643Z,2.2
2023-01-19T16:44:44.022Z,2.1
2023-01-19T16:49:43.916Z,2
2023-01-19T16:54:44.309Z,2
2023-01-19T16:59:44.093Z,2
2023-01-19T17:04:43.630Z,1.7
2023-01-19T17:09:43.840Z,1.7
2023-01-19T17:14:43.841Z,1.8
2023-01-19T17:19:44.272Z,1.5
2023-01-19T17:24:45.371Z,1.5
2023-01-19T17:29:44.187Z,1.4
2023-01-19T17:34:43.634Z,1.3
2023-01-19T17:39:43.656Z,1.2
2023-01-19T17:44:44.114Z,1.3
2023-01-19T17:49:43.682Z,1.5
2023-01-19T17:54:43.855Z,1.8
2023-01-19T17:59:43.595Z,1.9
2023-01-19T18:04:43.964Z,2.1
2023-01-19T18:09:43.798Z,2.1
2023-01-19T18:14:43.579Z,1.9
2023-01-19T18:19:43.892Z,1.6
2023-01-19T18:24:43.761Z,1.4
2023-01-19T18:29:44.480Z,1.7
2023-01-19T18:34:43.824Z,1.4
2023-01-19T18:39:43.916Z,1.5
2023-01-19T18:44:43.581Z,1.5
2023-01-19T18:49:44.071Z,1.9
2023-01-19T18:54:43.796Z,1.6
2023-01-19T18:59:43.741Z,1.6
2023-01-19T19:04:43.839Z,1.6
2023-01-19T19:09:43.917Z,1.4
2023-01-19T19:14:43.732Z,1.6
2023-01-19T19:19:43.978Z,1.4
2023-01-19T19:24:43.992Z,1.9
2023-01-19T19:29:43.727Z,1.9
2023-01-19T19:34:43.579Z,1.6
2023-01-19T19:39:44.320Z,1.3
2023-01-19T19:44:44.055Z,1.6
2023-01-19T19:49:44.042Z,1.7
2023-01-19T19:54:46.561Z,1.7
2023-01-19T19:59:43.852Z,1.7
2023-01-19T20:04:43.938Z,2.2
2023-01-19T20:09:43.731Z,2
2023-01-19T20:14:43.880Z,1.6
2023-01-19T20:19:43.767Z,1.1
2023-01-19T20:24:43.630Z,1.4
2023-01-19T20:29:43.555Z,1.6
2023-01-19T20:34:43.705Z,1.4
2023-01-19T20:39:43.793Z,1.6
2023-01-19T20:44:43.935Z,1.7
2023-01-19T20:49:44.824Z,1.4
2023-01-19T20:54:43.624Z,1
2023-01-19T20:59:44.036Z,0.9
2023-01-19T21:04:43.929Z,0.6
2023-01-19T21:09:44.068Z,0.6
2023-01-19T21:14:43.769Z,0.8
2023-01-19T21:19:43.637Z,0.6
2023-01-19T21:24:44.559Z,0.6
2023-01-19T21:29:44.152Z,0.3
2023-01-19T21:34:43.614Z,0.1
2023-01-19T21:39:43.936Z,0.1
2023-01-19T21:44:43.365Z,0.3
2023-01-19T21:49:43.411Z,0.2
2023-01-19T21:54:43.434Z,0.3
2023-01-19T21:59:43.678Z,0.8
2023-01-19T22:04:43.443Z,0.3
2023-01-19T22:09:43.833Z,0.2
2023-01-19T22:14:43.605Z,0.3
2023-01-19T22:19:43.937Z,0.3
2023-01-19T22:24:43.320Z,0
2023-01-19T22:29:44.052Z,0
2023-01-19T22:34:43.593Z,-0.2
2023-01-19T22:39:43.780Z,-0.2
2023-01-19T22:44:43.694Z,-0.1
2023-01-19T22:49:43.480Z,0.1
2023-01-19T22:54:43.355Z,0.1
2023-01-19T22:59:43.454Z,0
2023-01-19T23:04:43.380Z,0
2023-01-19T23:09:43.805Z,-0.2
2023-01-19T23:14:43.409Z,0.2
2023-01-19T23:19:43.527Z,-0.1
2023-01-19T23:24:43.681Z,0
2023-01-19T23:29:43.888Z,0.1
2023-01-19T23:34:43.387Z,-0.1
2023-01-19T23:39:44.067Z,0
2023-01-19T23:44:43.352Z,0
2023-01-19T23:49:43.615Z,0.1
2023-01-19T23:54:43.500Z,0.1
2023-01-19T23:59:43.618Z,0.1
